Time;durP1;ratioP1;P1;durP2;ratioP2;P2;SDS_P1;SDS_P2;PMS_P1;PMS_P2;Temp;Humidity;BMP_temperature;BMP_pressure;BME280_temperature;BME280_humidity;BME280_pressure;Samples;Min_cycle;Max_cycle;Signal;HPM_P1;HPM_P2
2021/03/15 00:00:12;;;;;;;1.73;0.25;;;5.20;99.90;;;;;;5073299;28;20036;-65
2021/03/15 00:02:40;;;;;;;0.38;0.13;;;5.30;99.90;;;;;;5086644;28;20043;-65
2021/03/15 00:05:07;;;;;;;2.80;0.20;;;5.30;99.90;;;;;;5088655;28;20498;-65
2021/03/15 00:07:34;;;;;;;2.22;0.10;;;5.30;99.90;;;;;;5086162;28;20052;-65
2021/03/15 00:10:00;;;;;;;2.78;0.45;;;5.20;99.90;;;;;;5089944;28;20043;-65
2021/03/15 00:12:26;;;;;;;0.85;0.20;;;5.30;99.90;;;;;;5085939;28;20115;-65
2021/03/15 00:14:52;;;;;;;0.93;0.20;;;5.20;99.90;;;;;;5089714;28;20059;-65
2021/03/15 00:17:18;;;;;;;1.10;0.63;;;5.30;99.90;;;;;;5070319;28;20074;-65
2021/03/15 00:19:44;;;;;;;0.90;0.15;;;5.30;99.90;;;;;;5089744;28;20032;-65
2021/03/15 00:22:10;;;;;;;1.77;0.30;;;5.30;99.90;;;;;;5086088;28;20115;-65
2021/03/15 00:24:36;;;;;;;1.08;0.20;;;5.20;99.90;;;;;;5091060;28;20036;-65
2021/03/15 00:27:02;;;;;;;2.03;0.38;;;5.30;99.90;;;;;;5088495;28;20036;-65
2021/03/15 00:29:28;;;;;;;2.50;0.40;;;5.30;99.90;;;;;;5093871;28;20081;-65
2021/03/15 00:31:54;;;;;;;2.50;0.63;;;5.30;99.90;;;;;;5093064;28;20032;-65
2021/03/15 00:34:19;;;;;;;1.65;0.28;;;5.30;99.90;;;;;;5093816;28;20036;-65
2021/03/15 00:36:46;;;;;;;2.28;0.30;;;5.30;99.90;;;;;;5093250;28;20111;-65
2021/03/15 00:39:12;;;;;;;3.72;0.45;;;5.30;99.90;;;;;;5093850;28;20056;-65
2021/03/15 00:41:39;;;;;;;1.23;0.45;;;5.30;99.90;;;;;;5091202;28;20647;-65
2021/03/15 00:44:05;;;;;;;0.85;0.32;;;5.30;99.90;;;;;;5093994;28;20078;-65
2021/03/15 00:46:31;;;;;;;1.95;0.35;;;5.30;99.90;;;;;;5092253;28;20046;-65
2021/03/15 00:48:56;;;;;;;2.05;0.30;;;5.30;99.90;;;;;;5073190;28;20108;-65
2021/03/15 00:51:22;;;;;;;2.25;0.20;;;5.30;99.90;;;;;;5093017;28;20043;-65
2021/03/15 00:53:48;;;;;;;3.78;0.20;;;5.20;99.90;;;;;;5074223;28;20036;-65
2021/03/15 00:56:14;;;;;;;0.60;0.30;;;5.20;99.90;;;;;;5091264;28;20386;-65
2021/03/15 00:58:39;;;;;;;1.67;0.57;;;5.20;99.90;;;;;;5093195;28;20032;-65
2021/03/15 01:01:05;;;;;;;2.45;0.30;;;5.20;99.90;;;;;;5092681;28;20107;-65
2021/03/15 01:03:31;;;;;;;1.15;0.30;;;5.20;99.90;;;;;;5091752;28;20043;-65
2021/03/15 01:05:58;;;;;;;1.17;0.30;;;5.20;99.90;;;;;;5091084;28;20033;-65
2021/03/15 01:08:24;;;;;;;0.40;0.20;;;5.20;99.90;;;;;;5091904;28;20114;-65
2021/03/15 01:10:50;;;;;;;3.92;0.35;;;5.30;99.90;;;;;;5092916;28;20028;-65
2021/03/15 01:13:16;;;;;;;0.57;0.30;;;5.30;99.90;;;;;;5091899;28;20039;-65
2021/03/15 01:15:43;;;;;;;1.27;0.20;;;5.20;99.90;;;;;;5093203;28;20399;-65
2021/03/15 01:18:09;;;;;;;0.77;0.20;;;5.30;99.90;;;;;;5092993;28;20115;-65
2021/03/15 01:20:35;;;;;;;1.58;0.30;;;5.30;99.90;;;;;;5093679;28;20543;-65
2021/03/15 01:23:02;;;;;;;3.97;0.30;;;5.20;99.90;;;;;;5089456;28;20402;-65
2021/03/15 01:25:35;;;;;;;1.02;0.30;;;5.30;99.90;;;;;;5092787;28;20044;-65
2021/03/15 01:28:02;;;;;;;0.63;0.20;;;5.30;99.90;;;;;;5091389;28;20040;-65
2021/03/15 01:30:30;;;;;;;2.08;0.30;;;5.30;99.90;;;;;;5092266;28;20133;-65
2021/03/15 01:32:57;;;;;;;2.10;0.38;;;5.30;99.90;;;;;;5092250;28;20035;-65
2021/03/15 01:35:24;;;;;;;1.63;0.40;;;5.30;99.90;;;;;;5074335;28;20666;-65
2021/03/15 01:37:51;;;;;;;1.92;0.30;;;5.30;99.90;;;;;;5073808;28;20044;-65
2021/03/15 01:40:18;;;;;;;0.85;0.40;;;5.30;99.90;;;;;;5076796;28;20043;-65
2021/03/15 01:42:44;;;;;;;0.93;0.13;;;5.40;99.90;;;;;;5089875;28;20060;-65
2021/03/15 01:45:11;;;;;;;3.33;0.22;;;5.40;99.90;;;;;;5072432;28;20036;-65
2021/03/15 01:47:39;;;;;;;1.35;0.30;;;5.30;99.90;;;;;;5091063;28;20032;-65
2021/03/15 01:50:06;;;;;;;1.95;0.30;;;5.30;99.90;;;;;;5092947;28;20042;-65
2021/03/15 01:52:34;;;;;;;1.17;0.30;;;5.30;99.90;;;;;;5091199;28;20288;-65
2021/03/15 01:55:00;;;;;;;0.90;0.28;;;5.30;99.90;;;;;;5092538;28;20032;-65
2021/03/15 01:57:26;;;;;;;1.48;0.60;;;5.30;99.90;;;;;;5092109;28;20097;-65
2021/03/15 01:59:51;;;;;;;3.65;0.40;;;5.20;99.90;;;;;;5092382;28;20050;-65
2021/03/15 02:02:18;;;;;;;1.70;0.30;;;5.20;99.90;;;;;;5090600;28;20036;-65
2021/03/15 02:04:44;;;;;;;3.50;0.50;;;5.20;99.90;;;;;;5092261;28;20058;-65
2021/03/15 02:07:10;;;;;;;2.75;0.40;;;5.10;99.90;;;;;;5088911;28;20044;-65
2021/03/15 02:09:35;;;;;;;4.47;0.38;;;5.10;99.90;;;;;;5092175;28;20039;-65
2021/03/15 02:12:25;;;;;;;1.38;0.20;;;5.10;99.90;;;;;;5087834;28;20065;-65
2021/03/15 02:15:19;;;;;;;1.63;0.50;;;5.10;99.90;;;;;;5091003;28;20028;-65
2021/03/15 02:18:04;;;;;;;0.82;0.40;;;5.10;99.90;;;;;;5090617;28;20036;-65
2021/03/15 02:20:41;;;;;;;1.88;0.40;;;5.10;99.90;;;;;;5090486;28;20086;-65
2021/03/15 02:23:28;;;;;;;2.67;0.60;;;5.10;99.90;;;;;;5088948;28;20199;-65
2021/03/15 02:26:20;;;;;;;3.17;0.55;;;5.10;99.90;;;;;;5085271;28;20939;-65
2021/03/15 02:29:19;;;;;;;1.98;0.85;;;5.10;99.90;;;;;;5085626;28;20039;-65
2021/03/15 02:32:02;;;;;;;4.45;1.48;;;5.10;99.90;;;;;;5089252;28;20036;-65
2021/03/15 02:34:46;;;;;;;2.72;0.93;;;5.10;99.90;;;;;;5091700;28;20039;-65
2021/03/15 02:37:17;;;;;;;1.80;0.55;;;5.10;99.90;;;;;;5089946;28;20279;-65
2021/03/15 02:39:54;;;;;;;1.52;0.57;;;5.10;99.90;;;;;;5085783;28;20417;-65
2021/03/15 02:42:23;;;;;;;2.65;0.60;;;5.00;99.90;;;;;;5089903;28;20087;-65
2021/03/15 02:44:51;;;;;;;2.78;0.50;;;5.00;99.90;;;;;;5087422;28;20112;-65
2021/03/15 02:47:26;;;;;;;2.30;0.60;;;4.90;99.90;;;;;;5088967;28;20526;-65
2021/03/15 02:49:58;;;;;;;1.58;0.70;;;4.90;99.90;;;;;;5089131;28;20043;-65
2021/03/15 02:52:25;;;;;;;4.25;0.43;;;5.00;99.90;;;;;;5089927;28;20490;-65
2021/03/15 02:54:54;;;;;;;5.18;0.80;;;4.90;99.90;;;;;;5087919;28;20387;-65
2021/03/15 02:57:20;;;;;;;2.78;0.60;;;4.90;99.90;;;;;;5090081;28;20059;-65
2021/03/15 02:59:49;;;;;;;2.38;0.70;;;4.80;99.90;;;;;;5091487;28;20039;-65
2021/03/15 03:02:15;;;;;;;5.03;1.25;;;4.80;99.90;;;;;;5089714;28;20032;-65
2021/03/15 03:04:45;;;;;;;5.95;1.02;;;4.70;99.90;;;;;;5091040;28;20063;-65
2021/03/15 03:07:12;;;;;;;2.22;0.90;;;4.70;99.90;;;;;;5090748;28;20043;-65
2021/03/15 03:09:39;;;;;;;3.22;0.77;;;4.70;99.90;;;;;;5073347;28;20032;-65
2021/03/15 03:12:06;;;;;;;3.83;1.05;;;4.60;99.90;;;;;;5082454;28;20044;-65
2021/03/15 03:14:33;;;;;;;2.50;1.20;;;4.60;99.90;;;;;;5088952;28;20415;-65
2021/03/15 03:17:01;;;;;;;3.40;1.30;;;4.60;99.90;;;;;;5088245;28;20551;-65
2021/03/15 03:19:28;;;;;;;5.20;1.15;;;4.60;99.90;;;;;;5089732;28;20036;-65
2021/03/15 03:21:55;;;;;;;2.78;0.80;;;4.60;99.90;;;;;;5089230;28;20040;-65
2021/03/15 03:24:23;;;;;;;2.92;1.17;;;4.70;99.90;;;;;;5090801;28;20119;-65
2021/03/15 03:26:52;;;;;;;5.63;1.75;;;4.60;99.90;;;;;;5090587;28;20077;-65
2021/03/15 03:29:18;;;;;;;3.50;1.30;;;4.60;99.90;;;;;;5089936;28;20055;-65
2021/03/15 03:31:46;;;;;;;3.22;1.02;;;4.60;99.90;;;;;;5084633;28;20037;-65
2021/03/15 03:34:12;;;;;;;4.18;1.20;;;4.60;99.90;;;;;;5089589;28;20051;-65
2021/03/15 03:36:38;;;;;;;8.98;1.38;;;4.60;99.90;;;;;;5089985;28;20055;-65
2021/03/15 03:39:06;;;;;;;6.65;1.27;;;4.60;99.90;;;;;;5087021;28;20036;-65
2021/03/15 03:41:32;;;;;;;6.43;1.80;;;4.60;99.90;;;;;;5090097;28;20063;-65
2021/03/15 03:43:58;;;;;;;7.18;1.65;;;4.60;99.90;;;;;;5090077;28;20036;-65
2021/03/15 03:46:24;;;;;;;11.65;2.15;;;4.60;99.90;;;;;;5089055;28;20048;-65
2021/03/15 03:48:50;;;;;;;7.15;1.73;;;4.60;99.90;;;;;;5089299;28;20119;-64
2021/03/15 03:51:19;;;;;;;6.70;2.25;;;4.60;99.90;;;;;;5071800;28;20032;-65
2021/03/15 03:53:49;;;;;;;8.25;2.20;;;4.60;99.90;;;;;;5088698;28;20032;-65
2021/03/15 03:56:24;;;;;;;6.13;1.77;;;4.60;99.90;;;;;;5071984;28;20119;-65
2021/03/15 03:58:54;;;;;;;10.87;2.40;;;4.50;99.90;;;;;;5070513;28;20044;-65
2021/03/15 04:01:30;;;;;;;9.43;2.58;;;4.50;99.90;;;;;;5089167;28;20435;-65
2021/03/15 04:03:58;;;;;;;11.40;2.67;;;4.50;99.90;;;;;;5089880;28;20036;-65
2021/03/15 04:06:28;;;;;;;7.55;2.63;;;4.50;99.90;;;;;;5088662;28;20050;-65
2021/03/15 04:09:12;;;;;;;19.25;3.72;;;4.40;99.90;;;;;;5089643;28;20040;-65
2021/03/15 04:11:44;;;;;;;11.02;2.97;;;4.40;99.90;;;;;;5088494;28;20055;-65
2021/03/15 04:14:15;;;;;;;12.93;3.42;;;4.40;99.90;;;;;;5085256;28;20055;-65
2021/03/15 04:16:42;;;;;;;14.50;4.10;;;4.40;99.90;;;;;;5088701;28;20115;-65
2021/03/15 04:19:10;;;;;;;16.85;4.78;;;4.50;99.90;;;;;;5089241;28;20043;-65
2021/03/15 04:21:38;;;;;;;12.80;3.70;;;4.50;99.90;;;;;;5088483;28;20040;-65
2021/03/15 04:24:05;;;;;;;12.77;3.47;;;4.50;99.90;;;;;;5088584;28;20039;-65
2021/03/15 04:26:32;;;;;;;12.02;3.70;;;4.50;99.90;;;;;;5088549;28;20381;-65
2021/03/15 04:28:59;;;;;;;12.25;4.32;;;4.50;99.90;;;;;;5086387;28;20119;-65
2021/03/15 04:31:26;;;;;;;23.45;4.25;;;4.50;99.90;;;;;;5087627;28;20048;-65
2021/03/15 04:33:54;;;;;;;15.38;3.97;;;4.50;99.90;;;;;;5089501;28;20039;-65
2021/03/15 04:36:20;;;;;;;17.33;4.15;;;4.50;99.90;;;;;;5085691;28;20130;-65
2021/03/15 04:38:47;;;;;;;17.67;4.22;;;4.50;99.90;;;;;;5085760;28;20048;-65
2021/03/15 04:41:16;;;;;;;16.63;4.30;;;4.40;99.90;;;;;;5089739;28;20044;-65
2021/03/15 04:43:46;;;;;;;18.77;3.95;;;4.40;99.90;;;;;;5089031;28;21494;-65
2021/03/15 04:46:12;;;;;;;15.18;4.40;;;4.40;99.90;;;;;;5087357;28;20118;-65
2021/03/15 04:48:39;;;;;;;10.93;3.30;;;4.40;99.90;;;;;;5090750;28;20130;-65
2021/03/15 04:51:06;;;;;;;23.67;4.82;;;4.40;99.90;;;;;;5088602;28;20032;-65
2021/03/15 04:53:34;;;;;;;22.55;4.65;;;4.40;99.90;;;;;;5088653;28;20106;-65
2021/03/15 04:56:08;;;;;;;21.42;4.47;;;4.40;99.90;;;;;;5088913;28;20068;-65
2021/03/15 04:58:36;;;;;;;16.65;4.68;;;4.40;99.90;;;;;;5089187;28;20038;-65
2021/03/15 05:01:03;;;;;;;24.17;5.53;;;4.40;99.90;;;;;;5091502;28;20028;-65
2021/03/15 05:03:30;;;;;;;17.73;4.22;;;4.50;99.90;;;;;;5088131;28;20043;-65
2021/03/15 05:05:57;;;;;;;19.42;4.07;;;4.40;99.90;;;;;;5088916;28;20131;-64
2021/03/15 05:08:27;;;;;;;22.45;4.07;;;4.40;99.90;;;;;;5087579;28;20077;-65
2021/03/15 05:10:54;;;;;;;15.68;4.15;;;4.40;99.90;;;;;;5091563;28;20044;-65
2021/03/15 05:13:21;;;;;;;22.92;3.85;;;4.40;99.90;;;;;;5091664;28;20115;-65
2021/03/15 05:15:48;;;;;;;22.05;4.38;;;4.50;99.90;;;;;;5092823;28;20486;-65
2021/03/15 05:18:14;;;;;;;20.35;4.20;;;4.50;99.90;;;;;;5092345;28;20436;-65
2021/03/15 05:20:41;;;;;;;15.25;4.00;;;4.50;99.90;;;;;;5093078;28;20038;-65
2021/03/15 05:23:09;;;;;;;21.85;4.18;;;4.40;99.90;;;;;;5091186;28;20036;-65
2021/03/15 05:25:39;;;;;;;19.10;3.97;;;4.40;99.90;;;;;;5075339;28;20501;-65
2021/03/15 05:28:07;;;;;;;19.08;4.00;;;4.40;99.90;;;;;;5091332;28;20044;-65
2021/03/15 05:30:34;;;;;;;22.00;3.97;;;4.40;99.90;;;;;;5092639;28;20047;-65
2021/03/15 05:33:02;;;;;;;23.58;3.33;;;4.40;99.90;;;;;;5089135;28;20071;-65
2021/03/15 05:35:29;;;;;;;21.55;3.40;;;4.40;99.90;;;;;;5089072;28;20090;-65
2021/03/15 05:37:55;;;;;;;33.53;4.82;;;4.40;99.90;;;;;;5085619;28;20036;-64
2021/03/15 05:40:23;;;;;;;19.55;4.18;;;4.40;99.90;;;;;;5086529;28;20475;-65
2021/03/15 05:43:16;;;;;;;17.50;2.60;;;4.40;99.90;;;;;;5087007;28;20115;-64
2021/03/15 05:46:02;;;;;;;32.05;3.05;;;4.50;99.90;;;;;;5087543;28;20540;-65
2021/03/15 05:48:49;;;;;;;23.02;3.42;;;4.50;99.90;;;;;;5089508;28;20036;-65
2021/03/15 05:51:33;;;;;;;32.63;6.13;;;4.40;99.90;;;;;;5089394;28;20399;-65
2021/03/15 05:54:36;;;;;;;23.58;2.30;;;4.40;99.90;;;;;;5088206;28;20407;-65
2021/03/15 05:57:51;;;;;;;25.65;2.80;;;4.50;99.90;;;;;;5087289;28;20044;-65
2021/03/15 06:00:25;;;;;;;23.52;3.38;;;4.40;99.90;;;;;;5086268;28;20036;-64
2021/03/15 06:03:42;;;;;;;29.75;2.95;;;4.40;99.90;;;;;;5085508;28;20033;-65
2021/03/15 06:06:12;;;;;;;22.90;2.60;;;4.40;99.90;;;;;;5041913;28;20052;-64
2021/03/15 06:08:46;;;;;;;33.78;4.60;;;4.40;99.90;;;;;;5088117;28;20036;-64
2021/03/15 06:11:16;;;;;;;27.27;3.78;;;4.40;99.90;;;;;;5088987;28;20124;-65
2021/03/15 06:13:43;;;;;;;28.80;3.00;;;4.40;99.90;;;;;;5085575;28;20463;-64
2021/03/15 06:16:10;;;;;;;27.23;3.90;;;4.50;99.90;;;;;;5087057;28;20185;-64
2021/03/15 06:18:38;;;;;;;20.92;2.33;;;4.50;99.90;;;;;;5087753;28;20111;-65
2021/03/15 06:21:04;;;;;;;22.65;3.33;;;4.60;99.90;;;;;;5087471;28;20115;-64
2021/03/15 06:23:30;;;;;;;34.83;3.90;;;4.70;99.90;;;;;;5087247;28;20044;-64
2021/03/15 06:25:56;;;;;;;24.20;2.85;;;4.70;99.90;;;;;;5082622;28;20397;-65
2021/03/15 06:28:23;;;;;;;25.27;3.50;;;4.70;99.90;;;;;;5084392;28;20036;-65
2021/03/15 06:30:51;;;;;;;35.90;2.92;;;4.80;99.90;;;;;;5088327;28;20028;-65
2021/03/15 06:33:17;;;;;;;32.25;4.43;;;4.90;99.90;;;;;;5088534;28;20032;-65
2021/03/15 06:35:49;;;;;;;25.45;3.22;;;5.00;99.90;;;;;;5091064;28;20123;-65
2021/03/15 06:38:17;;;;;;;26.05;3.17;;;5.20;99.90;;;;;;5090696;28;20039;-65
2021/03/15 06:40:44;;;;;;;18.42;2.30;;;5.50;99.90;;;;;;5089574;28;20093;-65
2021/03/15 06:43:15;;;;;;;24.02;2.60;;;5.80;99.90;;;;;;5089318;28;20067;-65
2021/03/15 06:45:46;;;;;;;18.20;2.47;;;6.00;99.90;;;;;;5089433;28;20382;-65
2021/03/15 06:48:12;;;;;;;21.48;2.97;;;6.10;99.90;;;;;;5091198;28;20499;-65
2021/03/15 06:50:38;;;;;;;17.98;2.63;;;6.10;99.90;;;;;;5091237;28;20081;-65
2021/03/15 06:53:05;;;;;;;19.27;2.92;;;5.90;99.90;;;;;;5088341;28;20032;-65
2021/03/15 06:55:43;;;;;;;27.95;3.63;;;5.90;99.90;;;;;;5089431;28;20040;-65
2021/03/15 06:58:18;;;;;;;23.33;3.33;;;5.80;99.90;;;;;;5089816;28;20142;-65
2021/03/15 07:00:45;;;;;;;33.75;5.30;;;5.80;99.90;;;;;;5087096;28;20036;-65
2021/03/15 07:03:21;;;;;;;46.45;4.75;;;5.80;99.90;;;;;;5089237;28;20036;-65
2021/03/15 07:05:58;;;;;;;30.13;4.30;;;5.80;99.90;;;;;;5088852;28;20706;-66
2021/03/15 07:08:24;;;;;;;25.85;2.85;;;5.80;99.90;;;;;;5085923;28;20162;-65
2021/03/15 07:10:55;;;;;;;20.52;3.90;;;5.80;99.90;;;;;;5089700;28;20036;-65
2021/03/15 07:13:23;;;;;;;35.53;4.65;;;5.80;99.90;;;;;;5089359;28;20039;-65
2021/03/15 07:15:51;;;;;;;29.17;2.85;;;5.80;99.90;;;;;;5090754;28;20039;-65
2021/03/15 07:18:20;;;;;;;32.58;4.25;;;5.80;99.90;;;;;;5086697;28;20402;-65
2021/03/15 07:20:57;;;;;;;25.40;3.33;;;5.80;99.90;;;;;;5065482;28;20355;-65
2021/03/15 07:23:38;;;;;;;44.17;5.05;;;5.90;99.90;;;;;;5089883;28;20032;-65
2021/03/15 07:26:23;;;;;;;22.95;3.55;;;6.00;99.90;;;;;;5087289;28;20028;-65
2021/03/15 07:28:49;;;;;;;34.45;3.92;;;6.00;99.90;;;;;;5068353;28;20032;-65
2021/03/15 07:31:31;;;;;;;21.77;2.78;;;6.10;99.90;;;;;;5089003;28;20040;-65
2021/03/15 07:33:57;;;;;;;26.48;3.35;;;6.10;99.90;;;;;;5088251;28;20047;-65
2021/03/15 07:36:29;;;;;;;31.70;4.03;;;6.20;99.90;;;;;;5090292;28;20395;-65
2021/03/15 07:38:56;;;;;;;31.55;5.03;;;6.20;99.90;;;;;;5088564;28;20044;-65
2021/03/15 07:41:23;;;;;;;21.83;4.15;;;6.20;99.90;;;;;;5087834;28;20059;-65
2021/03/15 07:43:50;;;;;;;29.70;3.72;;;6.20;99.90;;;;;;5087746;28;20036;-65
2021/03/15 07:46:22;;;;;;;37.33;4.22;;;6.20;99.90;;;;;;5084374;28;20151;-65
2021/03/15 07:48:49;;;;;;;48.08;5.18;;;6.20;99.90;;;;;;5087805;28;20449;-65
2021/03/15 07:51:27;;;;;;;29.95;3.28;;;6.20;99.90;;;;;;5085126;28;20083;-65
2021/03/15 07:54:05;;;;;;;22.25;3.25;;;6.30;99.90;;;;;;5086195;28;20063;-65
2021/03/15 07:56:31;;;;;;;26.77;3.15;;;6.20;99.90;;;;;;5085992;28;20130;-65
2021/03/15 07:58:57;;;;;;;20.80;3.00;;;6.20;99.90;;;;;;5088890;28;20209;-65
2021/03/15 08:01:24;;;;;;;19.55;3.17;;;6.20;99.90;;;;;;5087646;28;20166;-65
2021/03/15 08:03:50;;;;;;;32.40;6.25;;;6.30;99.90;;;;;;5082202;28;20032;-65
2021/03/15 08:06:17;;;;;;;23.25;4.32;;;6.30;99.90;;;;;;5081918;28;20041;-65
2021/03/15 08:08:43;;;;;;;24.17;2.97;;;6.30;99.90;;;;;;5085980;28;20425;-65
2021/03/15 08:11:13;;;;;;;23.80;2.90;;;6.30;99.90;;;;;;5068644;28;20059;-65
2021/03/15 08:13:44;;;;;;;25.15;3.17;;;6.20;99.90;;;;;;5086435;28;20039;-65
2021/03/15 08:16:13;;;;;;;26.05;3.75;;;6.30;99.90;;;;;;5088002;28;20056;-65
2021/03/15 08:18:42;;;;;;;33.72;3.88;;;6.30;99.90;;;;;;5068127;28;20024;-65
2021/03/15 08:21:17;;;;;;;25.08;4.00;;;6.30;99.90;;;;;;5085859;28;20039;-65
2021/03/15 08:23:44;;;;;;;35.35;4.05;;;6.30;99.90;;;;;;5085821;28;20046;-65
2021/03/15 08:26:13;;;;;;;27.15;3.45;;;6.30;99.90;;;;;;5085666;28;20039;-65
2021/03/15 08:28:41;;;;;;;24.50;2.95;;;6.30;99.90;;;;;;5084698;28;20114;-65
2021/03/15 08:31:07;;;;;;;17.83;2.35;;;6.30;99.90;;;;;;5085074;28;20035;-65
2021/03/15 08:33:33;;;;;;;29.85;3.35;;;6.40;99.90;;;;;;5087288;28;20032;-65
2021/03/15 08:35:59;;;;;;;28.98;3.92;;;6.40;99.90;;;;;;5085194;28;20063;-65
2021/03/15 08:38:30;;;;;;;28.90;3.55;;;6.40;99.90;;;;;;5086702;28;20372;-65
2021/03/15 08:40:57;;;;;;;22.63;3.20;;;6.50;99.90;;;;;;5088116;28;20028;-65
2021/03/15 08:43:25;;;;;;;21.45;2.75;;;6.50;99.90;;;;;;5086606;28;20387;-65
2021/03/15 08:45:54;;;;;;;31.10;3.97;;;6.50;99.90;;;;;;5087513;28;20082;-65
2021/03/15 08:48:32;;;;;;;56.72;5.00;;;6.50;99.90;;;;;;5089480;28;20036;-65
2021/03/15 08:51:02;;;;;;;37.05;3.55;;;6.50;99.90;;;;;;5091290;28;20045;-65
2021/03/15 08:53:37;;;;;;;34.78;3.40;;;6.50;99.90;;;;;;5086755;28;20142;-65
2021/03/15 08:56:03;;;;;;;27.55;2.92;;;6.50;99.90;;;;;;5090168;28;20042;-65
2021/03/15 08:58:41;;;;;;;30.27;3.88;;;6.60;99.90;;;;;;5090570;28;20390;-65
2021/03/15 09:01:10;;;;;;;22.40;3.03;;;6.60;99.90;;;;;;5090168;28;20501;-65
2021/03/15 09:03:56;;;;;;;25.85;3.72;;;6.80;99.90;;;;;;5087786;28;20043;-65
2021/03/15 09:06:30;;;;;;;23.88;3.08;;;6.90;99.90;;;;;;5091578;28;20044;-66
2021/03/15 09:09:21;;;;;;;56.55;5.63;;;6.90;99.90;;;;;;5087223;28;20060;-65
2021/03/15 09:11:49;;;;;;;29.23;3.85;;;7.00;99.90;;;;;;5087890;28;20036;-65
2021/03/15 09:14:25;;;;;;;24.17;3.10;;;7.00;99.90;;;;;;5090732;28;20071;-65
2021/03/15 09:16:53;;;;;;;;;;;6.90;99.90;;;;;;5086685;28;20038;-65
2021/03/15 09:19:41;;;;;;;14.10;2.83;;;6.90;99.90;;;;;;5091832;28;19923;-65
2021/03/15 09:22:24;;;;;;;25.98;3.60;;;6.90;99.90;;;;;;5087944;28;20032;-65
2021/03/15 09:24:50;;;;;;;18.50;3.20;;;6.90;99.90;;;;;;5089723;28;20036;-65
2021/03/15 09:27:30;;;;;;;10.68;1.77;;;6.80;99.90;;;;;;5090593;28;20501;-65
2021/03/15 09:30:19;;;;;;;8.35;0.90;;;6.80;99.90;;;;;;5089572;28;20494;-65
2021/03/15 09:32:56;;;;;;;10.68;2.40;;;6.70;99.90;;;;;;5086084;28;20043;-65
2021/03/15 09:35:40;;;;;;;11.63;1.50;;;6.60;99.90;;;;;;5091741;28;20032;-65
2021/03/15 09:38:08;;;;;;;8.40;0.82;;;6.60;99.90;;;;;;5086491;28;20426;-65
2021/03/15 09:40:40;;;;;;;13.48;2.28;;;6.60;99.90;;;;;;5086925;28;20046;-65
2021/03/15 09:43:07;;;;;;;15.90;2.35;;;6.70;99.90;;;;;;5087567;28;20039;-65
2021/03/15 09:45:38;;;;;;;21.08;2.30;;;6.80;99.90;;;;;;5091009;28;20040;-65
2021/03/15 09:48:16;;;;;;;25.27;3.03;;;6.90;99.90;;;;;;5071500;28;20042;-65
2021/03/15 09:50:47;;;;;;;20.80;2.67;;;6.90;99.90;;;;;;5093829;28;20040;-65
2021/03/15 09:53:14;;;;;;;15.38;2.58;;;7.00;99.90;;;;;;5093210;28;20048;-65
2021/03/15 09:55:40;;;;;;;24.55;2.47;;;7.10;99.90;;;;;;5086880;28;20040;-65
2021/03/15 09:58:07;;;;;;;18.33;3.42;;;7.10;99.90;;;;;;5089489;28;20540;-65
2021/03/15 10:00:33;;;;;;;21.88;2.78;;;7.30;99.90;;;;;;5092548;28;20036;-65
2021/03/15 10:02:59;;;;;;;17.95;2.80;;;7.30;99.90;;;;;;5090064;28;20032;-65
2021/03/15 10:05:25;;;;;;;17.20;3.00;;;7.40;99.90;;;;;;5089020;28;20036;-65
2021/03/15 10:07:51;;;;;;;18.92;2.90;;;7.50;99.90;;;;;;5090469;28;20408;-66
2021/03/15 10:10:19;;;;;;;19.60;2.38;;;7.60;99.90;;;;;;5089481;28;20032;-65
2021/03/15 10:12:48;;;;;;;14.57;2.85;;;7.70;99.90;;;;;;5084440;28;20460;-65
2021/03/15 10:15:15;;;;;;;26.88;4.40;;;7.60;99.80;;;;;;5091565;28;20070;-66
2021/03/15 10:17:41;;;;;;;27.13;3.70;;;7.50;99.90;;;;;;5082459;28;20600;-65
2021/03/15 10:20:10;;;;;;;23.02;3.03;;;7.50;99.90;;;;;;5082168;28;20032;-66
2021/03/15 10:22:36;;;;;;;25.35;3.53;;;7.50;99.90;;;;;;5086497;28;20465;-65
2021/03/15 10:25:03;;;;;;;20.38;3.25;;;7.50;99.90;;;;;;5086383;28;20044;-65
2021/03/15 10:27:30;;;;;;;24.05;4.00;;;7.50;99.90;;;;;;5084968;28;20032;-65
2021/03/15 10:30:05;;;;;;;29.23;3.70;;;7.60;99.90;;;;;;5090089;28;20071;-65
2021/03/15 10:32:31;;;;;;;26.70;4.95;;;7.60;99.90;;;;;;5087165;28;20032;-65
2021/03/15 10:35:00;;;;;;;19.23;2.65;;;7.60;99.60;;;;;;5088721;28;20048;-65
2021/03/15 10:37:30;;;;;;;19.73;4.15;;;7.70;99.80;;;;;;5089435;28;20036;-65
2021/03/15 10:39:56;;;;;;;14.35;3.22;;;7.90;99.90;;;;;;5090674;28;20395;-66
2021/03/15 10:42:24;;;;;;;28.75;3.65;;;7.90;98.70;;;;;;5086929;28;20115;-65
2021/03/15 10:44:51;;;;;;;25.52;3.35;;;8.00;98.60;;;;;;5080419;28;20103;-65
2021/03/15 10:47:32;;;;;;;24.00;3.05;;;8.10;98.90;;;;;;5087205;28;20132;-65
2021/03/15 10:50:00;;;;;;;21.83;3.22;;;8.10;98.60;;;;;;5086537;28;20094;-69
2021/03/15 10:52:30;;;;;;;19.52;3.17;;;8.10;97.90;;;;;;5086499;28;20093;-65
2021/03/15 10:55:16;;;;;;;13.50;2.33;;;8.30;98.50;;;;;;5089786;28;20074;-66
2021/03/15 10:57:58;;;;;;;19.63;3.28;;;8.60;98.40;;;;;;5101384;27;20047;-66
2021/03/15 11:00:26;;;;;;;18.52;2.75;;;8.90;98.10;;;;;;5086110;28;20051;-66
2021/03/15 11:02:52;;;;;;;22.02;3.53;;;9.00;96.80;;;;;;5089981;28;20162;-66
2021/03/15 11:05:18;;;;;;;20.42;3.38;;;9.00;95.70;;;;;;5086825;28;20470;-65
2021/03/15 11:07:45;;;;;;;18.48;3.53;;;8.90;95.10;;;;;;5087867;28;20040;-65
2021/03/15 11:10:16;;;;;;;14.35;2.30;;;8.80;95.40;;;;;;5089060;28;20066;-66
2021/03/15 11:12:45;;;;;;;16.52;2.83;;;8.90;96.40;;;;;;5083727;28;20036;-65
2021/03/15 11:15:29;;;;;;;19.02;3.40;;;8.90;94.80;;;;;;5088504;28;20036;-65
2021/03/15 11:18:01;;;;;;;16.45;2.58;;;9.10;95.80;;;;;;5089362;28;20103;-65
2021/03/15 11:21:08;;;;;;;20.38;3.30;;;9.10;95.40;;;;;;5088150;28;20088;-65
2021/03/15 11:23:39;;;;;;;15.15;3.00;;;9.00;94.60;;;;;;5002387;28;20072;-65
2021/03/15 11:26:07;;;;;;;14.63;2.00;;;9.00;95.20;;;;;;5075132;28;20422;-65
2021/03/15 11:28:39;;;;;;;17.65;3.17;;;9.10;95.90;;;;;;5085074;28;20032;-65
2021/03/15 11:31:06;;;;;;;11.77;3.03;;;9.30;96.20;;;;;;5084398;28;20043;-65
2021/03/15 11:33:32;;;;;;;14.18;2.13;;;9.30;94.20;;;;;;5085203;28;20032;-65
2021/03/15 11:36:12;;;;;;;11.55;2.17;;;9.20;93.70;;;;;;5083885;28;20040;-65
2021/03/15 11:38:38;;;;;;;22.05;2.85;;;9.20;94.10;;;;;;5085636;28;20047;-65
2021/03/15 11:41:21;;;;;;;17.90;2.00;;;9.20;94.70;;;;;;5086658;28;20063;-65
2021/03/15 11:43:47;;;;;;;16.55;2.65;;;9.10;93.60;;;;;;5087542;28;20398;-65
2021/03/15 11:46:13;;;;;;;17.15;2.78;;;8.90;94.10;;;;;;5069824;28;20047;-65
2021/03/15 11:48:40;;;;;;;18.95;3.50;;;8.90;94.40;;;;;;5087865;28;20131;-65
2021/03/15 11:51:06;;;;;;;21.02;3.47;;;9.00;95.90;;;;;;5087009;28;20032;-65
2021/03/15 11:53:32;;;;;;;19.30;2.92;;;9.10;96.00;;;;;;5082122;28;20047;-65
2021/03/15 11:55:58;;;;;;;17.65;3.05;;;9.20;95.30;;;;;;5086776;28;20130;-65
2021/03/15 11:58:25;;;;;;;24.05;3.30;;;9.20;94.30;;;;;;5084979;28;20044;-65
2021/03/15 12:00:51;;;;;;;25.63;3.85;;;9.20;94.40;;;;;;5087388;28;20044;-65
2021/03/15 12:03:17;;;;;;;16.13;3.40;;;9.10;94.50;;;;;;5086434;28;20111;-65
2021/03/15 12:05:42;;;;;;;14.38;3.63;;;9.10;94.60;;;;;;5086623;28;20062;-65
2021/03/15 12:08:08;;;;;;;23.48;3.85;;;9.00;95.00;;;;;;5088129;28;20044;-65
2021/03/15 12:10:34;;;;;;;23.30;3.80;;;9.10;94.70;;;;;;5084633;28;20486;-65
2021/03/15 12:13:00;;;;;;;21.33;4.93;;;9.00;95.00;;;;;;5083807;28;20039;-65
2021/03/15 12:15:26;;;;;;;18.67;2.78;;;9.10;95.60;;;;;;5088001;28;20047;-65
2021/03/15 12:17:52;;;;;;;19.42;3.55;;;9.30;96.00;;;;;;5088163;28;20044;-65
2021/03/15 12:20:18;;;;;;;22.10;3.88;;;9.50;95.60;;;;;;5085519;28;20044;-65
2021/03/15 12:22:46;;;;;;;19.80;3.20;;;9.70;94.50;;;;;;5087271;28;20069;-66
2021/03/15 12:25:12;;;;;;;18.17;2.67;;;9.90;93.90;;;;;;5085723;28;20042;-65
2021/03/15 12:27:38;;;;;;;22.40;3.13;;;10.00;92.50;;;;;;5086441;28;20126;-65
2021/03/15 12:30:05;;;;;;;19.15;3.47;;;10.10;94.60;;;;;;5087015;28;20123;-65
2021/03/15 12:32:30;;;;;;;16.00;2.78;;;10.00;92.50;;;;;;5086519;28;20479;-65
2021/03/15 12:34:56;;;;;;;21.15;3.28;;;9.90;92.70;;;;;;5086520;28;20066;-65
2021/03/15 12:37:22;;;;;;;18.70;3.45;;;9.70;92.60;;;;;;5068831;28;20040;-65
2021/03/15 12:39:48;;;;;;;27.00;4.32;;;9.80;92.70;;;;;;5088567;28;20036;-65
2021/03/15 12:42:15;;;;;;;21.70;2.60;;;9.80;93.50;;;;;;5083117;28;20045;-65
2021/03/15 12:44:41;;;;;;;16.65;3.40;;;9.80;93.00;;;;;;5085647;28;20036;-65
2021/03/15 12:47:07;;;;;;;17.75;3.70;;;9.70;93.30;;;;;;5086793;28;20036;-65
2021/03/15 12:49:33;;;;;;;16.98;2.50;;;9.60;93.50;;;;;;5087146;28;20039;-65
2021/03/15 12:51:58;;;;;;;19.70;2.38;;;9.70;93.70;;;;;;5086779;28;20378;-65
2021/03/15 12:54:24;;;;;;;14.77;2.53;;;9.70;92.90;;;;;;5085412;28;20671;-65
2021/03/15 12:56:50;;;;;;;21.23;4.47;;;9.80;93.20;;;;;;5085567;28;20148;-65
2021/03/15 12:59:16;;;;;;;17.83;3.35;;;9.90;93.30;;;;;;5088227;28;20614;-65
2021/03/15 13:01:42;;;;;;;19.58;3.47;;;10.00;93.80;;;;;;5085805;28;20483;-65
2021/03/15 13:04:09;;;;;;;15.48;3.05;;;10.00;92.90;;;;;;5086207;28;20068;-65